sensor_id;sensor_type;location;lat;lon;timestamp;pressure;altitude;pressure_sealevel;temperature;humidity
74435;BME280;62867;52.038;29.256;2022-09-25T00:03:33;1020.3;;;9.8;73.7
74435;BME280;62867;52.038;29.256;2022-09-25T00:08:58;1020.3;;;9.8;73.6
74435;BME280;62867;52.038;29.256;2022-09-25T00:13:47;1020.3;;;9.8;73.5
74435;BME280;62867;52.038;29.256;2022-09-25T00:18:45;1020.3;;;9.7;73.6
74435;BME280;62867;52.038;29.256;2022-09-25T00:23:56;1020.3;;;9.7;73.5
74435;BME280;62867;52.038;29.256;2022-09-25T00:29:13;1020.3;;;9.7;73.3
74435;BME280;62867;52.038;29.256;2022-09-25T00:34:00;1020.3;;;9.6;73.3
74435;BME280;62867;52.038;29.256;2022-09-25T00:39:09;1020.3;;;9.6;73.2
74435;BME280;62867;52.038;29.256;2022-09-25T00:45:17;1020.3;;;9.5;73.5
74435;BME280;62867;52.038;29.256;2022-09-25T00:49:15;1020.2;;;9.5;73.6
74435;BME280;62867;52.038;29.256;2022-09-25T00:53:36;1020.2;;;9.5;73.8
74435;BME280;62867;52.038;29.256;2022-09-25T00:58:59;1020.2;;;9.4;73.6
74435;BME280;62867;52.038;29.256;2022-09-25T01:04:11;1020.1;;;9.4;73.5
74435;BME280;62867;52.038;29.256;2022-09-25T01:08:58;1020.1;;;9.4;73.4
74435;BME280;62867;52.038;29.256;2022-09-25T01:13:58;1020.1;;;9.4;73.5
74435;BME280;62867;52.038;29.256;2022-09-25T01:19:22;1020.1;;;9.3;73.5
74435;BME280;62867;52.038;29.256;2022-09-25T01:23:54;1020.1;;;9.3;73.6
74435;BME280;62867;52.038;29.256;2022-09-25T01:29:04;1020.1;;;9.3;73.3
74435;BME280;62867;52.038;29.256;2022-09-25T01:33:49;1020.2;;;9.2;73.1
74435;BME280;62867;52.038;29.256;2022-09-25T01:38:49;1020.2;;;9.2;73.3
74435;BME280;62867;52.038;29.256;2022-09-25T01:43:45;1020.2;;;9.1;73.4
74435;BME280;62867;52.038;29.256;2022-09-25T01:48:35;1020.2;;;9.1;73.1
74435;BME280;62867;52.038;29.256;2022-09-25T01:54:13;1020.2;;;9;73.5
74435;BME280;62867;52.038;29.256;2022-09-25T01:58:59;1020.3;;;9;73.5
74435;BME280;62867;52.038;29.256;2022-09-25T02:03:55;1020.2;;;9;73.6
74435;BME280;62867;52.038;29.256;2022-09-25T02:09:02;1020.3;;;9;73.4
74435;BME280;62867;52.038;29.256;2022-09-25T02:14:16;1020.3;;;9;73.3
74435;BME280;62867;52.038;29.256;2022-09-25T02:19:14;1020.3;;;9;73.4
74435;BME280;62867;52.038;29.256;2022-09-25T02:24:16;1020.3;;;8.9;73.5
74435;BME280;62867;52.038;29.256;2022-09-25T02:28:34;1020.4;;;8.9;73.6
74435;BME280;62867;52.038;29.256;2022-09-25T02:33:33;1020.3;;;8.9;73.4
74435;BME280;62867;52.038;29.256;2022-09-25T02:39:02;1020.3;;;8.8;73.3
74435;BME280;62867;52.038;29.256;2022-09-25T02:43:54;1020.3;;;8.8;73.3
74435;BME280;62867;52.038;29.256;2022-09-25T02:48:53;1020.3;;;8.8;73.1
74435;BME280;62867;52.038;29.256;2022-09-25T02:54:14;1020.3;;;8.7;73.1
74435;BME280;62867;52.038;29.256;2022-09-25T02:59:18;1020.3;;;8.7;73.2
74435;BME280;62867;52.038;29.256;2022-09-25T03:03:59;1020.3;;;8.7;73.2
74435;BME280;62867;52.038;29.256;2022-09-25T03:09:11;1020.3;;;8.6;73.4
74435;BME280;62867;52.038;29.256;2022-09-25T03:14:11;1020.4;;;8.6;73.3
74435;BME280;62867;52.038;29.256;2022-09-25T03:18:46;1020.4;;;8.6;73.3
74435;BME280;62867;52.038;29.256;2022-09-25T03:23:43;1020.4;;;8.5;72.7
74435;BME280;62867;52.038;29.256;2022-09-25T03:29:01;1020.4;;;8.4;72.9
74435;BME280;62867;52.038;29.256;2022-09-25T03:34:16;1020.5;;;8.4;72.8
74435;BME280;62867;52.038;29.256;2022-09-25T03:38:59;1020.5;;;8.3;73
74435;BME280;62867;52.038;29.256;2022-09-25T03:43:57;1020.5;;;8.3;72.9
74435;BME280;62867;52.038;29.256;2022-09-25T03:48:59;1020.5;;;8.3;73
74435;BME280;62867;52.038;29.256;2022-09-25T03:53:55;1020.5;;;8.2;73
74435;BME280;62867;52.038;29.256;2022-09-25T03:58:57;1020.5;;;8.2;73.2
74435;BME280;62867;52.038;29.256;2022-09-25T04:03:59;1020.5;;;8.2;73.1
74435;BME280;62867;52.038;29.256;2022-09-25T04:08:44;1020.5;;;8.2;73.1
74435;BME280;62867;52.038;29.256;2022-09-25T04:13:34;1020.5;;;8.1;73.2
74435;BME280;62867;52.038;29.256;2022-09-25T04:18:49;1020.5;;;8.1;73.2
74435;BME280;62867;52.038;29.256;2022-09-25T04:24:15;1020.5;;;8.1;73
74435;BME280;62867;52.038;29.256;2022-09-25T04:28:59;1020.5;;;8.1;72.8
74435;BME280;62867;52.038;29.256;2022-09-25T04:33:33;1020.5;;;8.1;73.2
74435;BME280;62867;52.038;29.256;2022-09-25T04:38:33;1020.5;;;8.1;73.1
74435;BME280;62867;52.038;29.256;2022-09-25T04:44:15;1020.6;;;8.1;73
74435;BME280;62867;52.038;29.256;2022-09-25T04:49:15;1020.6;;;8.2;73.2
74435;BME280;62867;52.038;29.256;2022-09-25T04:53:33;1020.6;;;8.4;73.1
74435;BME280;62867;52.038;29.256;2022-09-25T04:58:44;1020.7;;;8.7;72.5
74435;BME280;62867;52.038;29.256;2022-09-25T05:03:46;1020.7;;;8.9;72
74435;BME280;62867;52.038;29.256;2022-09-25T05:08:43;1020.7;;;9.3;71.5
74435;BME280;62867;52.038;29.256;2022-09-25T05:13:50;1020.7;;;9.5;71.1
74435;BME280;62867;52.038;29.256;2022-09-25T05:18:49;1020.8;;;9.8;70.4
74435;BME280;62867;52.038;29.256;2022-09-25T05:23:59;1020.8;;;10;69.2
74435;BME280;62867;52.038;29.256;2022-09-25T05:29:05;1020.8;;;10.2;69.1
74435;BME280;62867;52.038;29.256;2022-09-25T05:33:33;1020.8;;;10.4;68.7
74435;BME280;62867;52.038;29.256;2022-09-25T05:39:11;1020.8;;;10.5;68.6
74435;BME280;62867;52.038;29.256;2022-09-25T05:44:07;1020.8;;;10.9;68.2
74435;BME280;62867;52.038;29.256;2022-09-25T05:48:55;1020.8;;;11.2;68.3
74435;BME280;62867;52.038;29.256;2022-09-25T05:53:33;1020.9;;;11.3;67.1
74435;BME280;62867;52.038;29.256;2022-09-25T05:58:37;1020.9;;;11.3;67.3
74435;BME280;62867;52.038;29.256;2022-09-25T06:04:13;1021;;;11.3;68.1
74435;BME280;62867;52.038;29.256;2022-09-25T06:09:01;1021;;;11.4;68.2
74435;BME280;62867;52.038;29.256;2022-09-25T06:13:59;1021;;;11.5;67.8
74435;BME280;62867;52.038;29.256;2022-09-25T06:18:55;1021;;;11.6;67.4
74435;BME280;62867;52.038;29.256;2022-09-25T06:24:05;1021;;;11.8;66.7
74435;BME280;62867;52.038;29.256;2022-09-25T06:28:45;1021;;;12.1;66.2
74435;BME280;62867;52.038;29.256;2022-09-25T06:34:00;1021;;;12.3;66.6
74435;BME280;62867;52.038;29.256;2022-09-25T06:38:33;1021;;;12.5;66.2
74435;BME280;62867;52.038;29.256;2022-09-25T06:43:43;1020.9;;;12.7;66.5
74435;BME280;62867;52.038;29.256;2022-09-25T06:48:53;1020.9;;;12.9;65.7
74435;BME280;62867;52.038;29.256;2022-09-25T06:54:11;1020.9;;;13.1;66.1
74435;BME280;62867;52.038;29.256;2022-09-25T06:59:13;1020.9;;;13.3;65.1
74435;BME280;62867;52.038;29.256;2022-09-25T07:04:11;1020.9;;;13.5;65
74435;BME280;62867;52.038;29.256;2022-09-25T07:08:43;1020.9;;;13.7;64.4
74435;BME280;62867;52.038;29.256;2022-09-25T07:14:13;1020.9;;;13.9;64.3
74435;BME280;62867;52.038;29.256;2022-09-25T07:19:13;1021;;;14.1;63.2
74435;BME280;62867;52.038;29.256;2022-09-25T07:23:57;1020.9;;;14.2;62.3
74435;BME280;62867;52.038;29.256;2022-09-25T07:28:34;1020.9;;;14.4;62.6
74435;BME280;62867;52.038;29.256;2022-09-25T07:33:46;1021;;;14.6;61.2
74435;BME280;62867;52.038;29.256;2022-09-25T07:38:47;1021;;;14.7;60.8
74435;BME280;62867;52.038;29.256;2022-09-25T07:43:51;1021;;;14.9;59.9
74435;BME280;62867;52.038;29.256;2022-09-25T07:48:48;1020.9;;;15.1;60.1
74435;BME280;62867;52.038;29.256;2022-09-25T07:54:09;1021;;;15.3;59.6
74435;BME280;62867;52.038;29.256;2022-09-25T07:59:09;1021;;;15.5;59.9
74435;BME280;62867;52.038;29.256;2022-09-25T08:03:53;1020.9;;;15.7;58.6
74435;BME280;62867;52.038;29.256;2022-09-25T08:09:15;1020.9;;;15.9;59.4
74435;BME280;62867;52.038;29.256;2022-09-25T08:14:10;1021;;;16.2;58.8
74435;BME280;62867;52.038;29.256;2022-09-25T08:18:33;1021;;;16.3;55.9
74435;BME280;62867;52.038;29.256;2022-09-25T08:23:33;1021;;;16.5;55.5
74435;BME280;62867;52.038;29.256;2022-09-25T08:28:34;1021;;;16.7;56.2
74435;BME280;62867;52.038;29.256;2022-09-25T08:34:17;1021;;;16.8;54.6
74435;BME280;62867;52.038;29.256;2022-09-25T08:39:01;1020.9;;;16.9;53.1
74435;BME280;62867;52.038;29.256;2022-09-25T08:44:19;1020.9;;;17;53.4
74435;BME280;62867;52.038;29.256;2022-09-25T08:48:59;1020.9;;;17.1;54.5
74435;BME280;62867;52.038;29.256;2022-09-25T08:54:12;1020.9;;;17.3;53
74435;BME280;62867;52.038;29.256;2022-09-25T08:58:35;1020.9;;;17.3;53.4
74435;BME280;62867;52.038;29.256;2022-09-25T09:04:03;1020.8;;;17.3;54
74435;BME280;62867;52.038;29.256;2022-09-25T09:08:34;1020.8;;;17.3;53.4
74435;BME280;62867;52.038;29.256;2022-09-25T09:13:49;1020.9;;;17.3;53.8
74435;BME280;62867;52.038;29.256;2022-09-25T09:18:37;1020.8;;;17.3;53.5
74435;BME280;62867;52.038;29.256;2022-09-25T09:23:57;1020.8;;;17.3;53.1
74435;BME280;62867;52.038;29.256;2022-09-25T09:29:21;1020.8;;;17.2;52.5
74435;BME280;62867;52.038;29.256;2022-09-25T09:34:01;1020.8;;;17;51.6
74435;BME280;62867;52.038;29.256;2022-09-25T09:39:27;1020.8;;;16.7;53.3
74435;BME280;62867;52.038;29.256;2022-09-25T09:44:02;1020.8;;;16.6;54.4
74435;BME280;62867;52.038;29.256;2022-09-25T09:50:20;1020.8;;;16.6;55.4
74435;BME280;62867;52.038;29.256;2022-09-25T09:54:19;1020.8;;;16.6;55.5
74435;BME280;62867;52.038;29.256;2022-09-25T09:58:57;1020.8;;;16.7;55.1
74435;BME280;62867;52.038;29.256;2022-09-25T10:03:33;1020.7;;;16.9;53.7
74435;BME280;62867;52.038;29.256;2022-09-25T10:08:33;1020.8;;;17;54.1
74435;BME280;62867;52.038;29.256;2022-09-25T10:14:02;1020.8;;;17.1;52.7
74435;BME280;62867;52.038;29.256;2022-09-25T10:18:52;1020.7;;;17.2;52.5
74435;BME280;62867;52.038;29.256;2022-09-25T10:23:48;1020.7;;;17.2;53
74435;BME280;62867;52.038;29.256;2022-09-25T10:29:25;1020.7;;;17.2;53
74435;BME280;62867;52.038;29.256;2022-09-25T10:34:00;1020.6;;;17.3;53.6
74435;BME280;62867;52.038;29.256;2022-09-25T10:39:02;1020.6;;;17.4;54.4
74435;BME280;62867;52.038;29.256;2022-09-25T10:44:19;1020.6;;;17.5;54.4
74435;BME280;62867;52.038;29.256;2022-09-25T10:49:18;1020.6;;;17.6;52.5
74435;BME280;62867;52.038;29.256;2022-09-25T10:54:25;1020.5;;;17.7;53.3
74435;BME280;62867;52.038;29.256;2022-09-25T10:58:34;1020.5;;;17.9;53.2
74435;BME280;62867;52.038;29.256;2022-09-25T11:03:56;1020.4;;;18.5;52.8
74435;BME280;62867;52.038;29.256;2022-09-25T11:09:19;1020.4;;;18.7;53.3
74435;BME280;62867;52.038;29.256;2022-09-25T11:14:04;1020.4;;;18.6;52.5
74435;BME280;62867;52.038;29.256;2022-09-25T11:19:10;1020.3;;;18.3;52.5
74435;BME280;62867;52.038;29.256;2022-09-25T11:24:34;1020.3;;;17.9;53.9
74435;BME280;62867;52.038;29.256;2022-09-25T11:28:50;1020.2;;;17.6;54.4
74435;BME280;62867;52.038;29.256;2022-09-25T11:33:38;1020.2;;;17.6;52.4
74435;BME280;62867;52.038;29.256;2022-09-25T11:39:01;1020.2;;;17.5;53.8
74435;BME280;62867;52.038;29.256;2022-09-25T11:44:04;1020.2;;;17.2;55.5
74435;BME280;62867;52.038;29.256;2022-09-25T11:48:53;1020.2;;;16.9;56.3
74435;BME280;62867;52.038;29.256;2022-09-25T11:53:57;1020.2;;;16.6;56.8
74435;BME280;62867;52.038;29.256;2022-09-25T11:59:19;1020.3;;;16.4;56.8
74435;BME280;62867;52.038;29.256;2022-09-25T12:04:32;1020.3;;;16.3;57.7
74435;BME280;62867;52.038;29.256;2022-09-25T12:08:46;1020.3;;;16.2;58.1
74435;BME280;62867;52.038;29.256;2022-09-25T12:13:37;1020.3;;;16.2;59.3
74435;BME280;62867;52.038;29.256;2022-09-25T12:19:18;1020.2;;;16.2;59.5
74435;BME280;62867;52.038;29.256;2022-09-25T12:28:51;1020.1;;;16.3;60.7
74435;BME280;62867;52.038;29.256;2022-09-25T12:33:50;1020.1;;;16.2;59.8
74435;BME280;62867;52.038;29.256;2022-09-25T12:38:44;1020.1;;;16.2;60
74435;BME280;62867;52.038;29.256;2022-09-25T12:44:11;1020;;;16.3;59.3
74435;BME280;62867;52.038;29.256;2022-09-25T12:48:38;1020;;;16.4;59.6
74435;BME280;62867;52.038;29.256;2022-09-25T12:53:49;1020;;;16.4;60.2
74435;BME280;62867;52.038;29.256;2022-09-25T13:04:21;1019.9;;;16.6;60.8
74435;BME280;62867;52.038;29.256;2022-09-25T13:09:16;1019.9;;;16.5;60.3
74435;BME280;62867;52.038;29.256;2022-09-25T13:14:30;1019.9;;;16.5;60.2
74435;BME280;62867;52.038;29.256;2022-09-25T13:19:29;1019.9;;;16.4;60.9
74435;BME280;62867;52.038;29.256;2022-09-25T13:28:33;1019.9;;;16.3;61
74435;BME280;62867;52.038;29.256;2022-09-25T13:39:18;1019.9;;;16.3;60.3
74435;BME280;62867;52.038;29.256;2022-09-25T13:53:56;1019.9;;;16.2;61.6
74435;BME280;62867;52.038;29.256;2022-09-25T13:59:34;1019.9;;;16.1;61
74435;BME280;62867;52.038;29.256;2022-09-25T14:03:51;1019.9;;;16.1;61.2
74435;BME280;62867;52.038;29.256;2022-09-25T14:09:04;1019.9;;;16;62.2
74435;BME280;62867;52.038;29.256;2022-09-25T14:13:40;1019.9;;;15.9;62.7
74435;BME280;62867;52.038;29.256;2022-09-25T14:18:40;1019.9;;;15.8;62.1
74435;BME280;62867;52.038;29.256;2022-09-25T14:23:32;1019.9;;;15.6;62.6
74435;BME280;62867;52.038;29.256;2022-09-25T14:29:18;1019.9;;;15.5;63.3
74435;BME280;62867;52.038;29.256;2022-09-25T14:38:59;1019.9;;;15.3;64.1
74435;BME280;62867;52.038;29.256;2022-09-25T14:43:46;1019.9;;;15.3;64.5
74435;BME280;62867;52.038;29.256;2022-09-25T14:49:02;1019.9;;;15.3;64.5
74435;BME280;62867;52.038;29.256;2022-09-25T14:54:16;1019.8;;;15.2;64.2
74435;BME280;62867;52.038;29.256;2022-09-25T14:58:58;1019.8;;;15.2;64.9
74435;BME280;62867;52.038;29.256;2022-09-25T15:03:44;1019.8;;;15.1;65.8
74435;BME280;62867;52.038;29.256;2022-09-25T15:08:41;1019.8;;;15;66.2
74435;BME280;62867;52.038;29.256;2022-09-25T15:13:42;1019.8;;;14.9;66.6
74435;BME280;62867;52.038;29.256;2022-09-25T15:18:50;1019.8;;;14.8;66.7
74435;BME280;62867;52.038;29.256;2022-09-25T15:23:41;1019.8;;;14.7;67.5
74435;BME280;62867;52.038;29.256;2022-09-25T15:29:23;1019.8;;;14.6;67.6
74435;BME280;62867;52.038;29.256;2022-09-25T15:34:09;1019.8;;;14.6;67.8
74435;BME280;62867;52.038;29.256;2022-09-25T15:38:52;1019.7;;;14.5;67.5
74435;BME280;62867;52.038;29.256;2022-09-25T15:44:20;1019.7;;;14.4;67.6
74435;BME280;62867;52.038;29.256;2022-09-25T15:48:58;1019.7;;;14.3;67.6
74435;BME280;62867;52.038;29.256;2022-09-25T15:53:33;1019.7;;;14.2;67.5
74435;BME280;62867;52.038;29.256;2022-09-25T15:58:51;1019.7;;;14;67.7
74435;BME280;62867;52.038;29.256;2022-09-25T16:03:42;1019.7;;;13.9;68
74435;BME280;62867;52.038;29.256;2022-09-25T16:09:22;1019.7;;;13.8;68.2
74435;BME280;62867;52.038;29.256;2022-09-25T16:14:26;1019.8;;;13.7;68.9
74435;BME280;62867;52.038;29.256;2022-09-25T16:19:20;1019.8;;;13.6;69.1
74435;BME280;62867;52.038;29.256;2022-09-25T16:24:06;1019.9;;;13.5;69.3
74435;BME280;62867;52.038;29.256;2022-09-25T16:29:19;1019.8;;;13.5;69.8
74435;BME280;62867;52.038;29.256;2022-09-25T16:33:59;1019.8;;;13.4;69.7
74435;BME280;62867;52.038;29.256;2022-09-25T16:39:21;1019.9;;;13.3;69.7
74435;BME280;62867;52.038;29.256;2022-09-25T16:43:34;1019.9;;;13.3;69.8
74435;BME280;62867;52.038;29.256;2022-09-25T16:49:01;1019.8;;;13.2;69.8
74435;BME280;62867;52.038;29.256;2022-09-25T16:53:33;1019.8;;;13.2;69.9
74435;BME280;62867;52.038;29.256;2022-09-25T16:59:15;1019.8;;;13.1;70.2
74435;BME280;62867;52.038;29.256;2022-09-25T17:04:15;1019.8;;;13.1;70.2
74435;BME280;62867;52.038;29.256;2022-09-25T17:08:42;1019.8;;;13.1;70.6
74435;BME280;62867;52.038;29.256;2022-09-25T17:13:55;1019.8;;;13;70.8
74435;BME280;62867;52.038;29.256;2022-09-25T17:19:18;1019.8;;;13;70.8
74435;BME280;62867;52.038;29.256;2022-09-25T17:24:13;1019.8;;;13;70.7
74435;BME280;62867;52.038;29.256;2022-09-25T17:28:33;1019.8;;;13;70.8
74435;BME280;62867;52.038;29.256;2022-09-25T17:33:41;1019.8;;;13;70.9
74435;BME280;62867;52.038;29.256;2022-09-25T17:38:43;1019.7;;;13;70.8
74435;BME280;62867;52.038;29.256;2022-09-25T17:43:46;1019.6;;;12.9;70.8
74435;BME280;62867;52.038;29.256;2022-09-25T17:48:49;1019.6;;;12.9;70.8
74435;BME280;62867;52.038;29.256;2022-09-25T17:53:44;1019.6;;;12.8;70.9
74435;BME280;62867;52.038;29.256;2022-09-25T17:58:56;1019.6;;;12.7;71
74435;BME280;62867;52.038;29.256;2022-09-25T18:04:17;1019.6;;;12.7;71
74435;BME280;62867;52.038;29.256;2022-09-25T18:08:55;1019.6;;;12.6;71
74435;BME280;62867;52.038;29.256;2022-09-25T18:14:03;1019.6;;;12.5;71.1
74435;BME280;62867;52.038;29.256;2022-09-25T18:19:16;1019.6;;;12.5;71.2
74435;BME280;62867;52.038;29.256;2022-09-25T18:24:16;1019.6;;;12.4;71.1
74435;BME280;62867;52.038;29.256;2022-09-25T18:28:55;1019.5;;;12.4;71
74435;BME280;62867;52.038;29.256;2022-09-25T18:33:31;1019.5;;;12.3;71
74435;BME280;62867;52.038;29.256;2022-09-25T18:38:58;1019.5;;;12.2;71
74435;BME280;62867;52.038;29.256;2022-09-25T18:44:15;1019.6;;;12.2;71
74435;BME280;62867;52.038;29.256;2022-09-25T18:49:02;1019.6;;;12.1;71.1
74435;BME280;62867;52.038;29.256;2022-09-25T18:53:58;1019.5;;;12.1;71.3
74435;BME280;62867;52.038;29.256;2022-09-25T18:58:44;1019.5;;;12;71.6
74435;BME280;62867;52.038;29.256;2022-09-25T19:03:49;1019.5;;;12;71.7
74435;BME280;62867;52.038;29.256;2022-09-25T19:08:56;1019.5;;;12;71.8
74435;BME280;62867;52.038;29.256;2022-09-25T19:13:56;1019.6;;;12;72.1
74435;BME280;62867;52.038;29.256;2022-09-25T19:18:40;1019.5;;;12;72
74435;BME280;62867;52.038;29.256;2022-09-25T19:23:40;1019.5;;;12;71.9
74435;BME280;62867;52.038;29.256;2022-09-25T19:28:46;1019.6;;;12;71.9
74435;BME280;62867;52.038;29.256;2022-09-25T19:34:02;1019.6;;;12;71.9
74435;BME280;62867;52.038;29.256;2022-09-25T19:38:52;1019.6;;;12;71.8
74435;BME280;62867;52.038;29.256;2022-09-25T19:43:54;1019.5;;;11.9;71.7
74435;BME280;62867;52.038;29.256;2022-09-25T19:48:54;1019.6;;;11.9;71.4
74435;BME280;62867;52.038;29.256;2022-09-25T19:54:16;1019.5;;;11.8;71.3
74435;BME280;62867;52.038;29.256;2022-09-25T19:59:18;1019.5;;;11.7;71.4
74435;BME280;62867;52.038;29.256;2022-09-25T20:03:56;1019.5;;;11.6;71.3
74435;BME280;62867;52.038;29.256;2022-09-25T20:08:34;1019.5;;;11.6;71.6
74435;BME280;62867;52.038;29.256;2022-09-25T20:13:34;1019.5;;;11.6;71.8
74435;BME280;62867;52.038;29.256;2022-09-25T20:19:04;1019.5;;;11.6;71.7
74435;BME280;62867;52.038;29.256;2022-09-25T20:23:52;1019.4;;;11.5;71.6
74435;BME280;62867;52.038;29.256;2022-09-25T20:28:56;1019.4;;;11.5;71.7
74435;BME280;62867;52.038;29.256;2022-09-25T20:34:10;1019.4;;;11.4;71.6
74435;BME280;62867;52.038;29.256;2022-09-25T20:39:14;1019.4;;;11.3;71.3
74435;BME280;62867;52.038;29.256;2022-09-25T20:44:04;1019.3;;;11.2;71
74435;BME280;62867;52.038;29.256;2022-09-25T20:49:16;1019.3;;;11.1;71
74435;BME280;62867;52.038;29.256;2022-09-25T20:54:10;1019.2;;;11;71.2
74435;BME280;62867;52.038;29.256;2022-09-25T20:58:42;1019.2;;;11;71.5
74435;BME280;62867;52.038;29.256;2022-09-25T21:03:48;1019.2;;;10.9;71.6
74435;BME280;62867;52.038;29.256;2022-09-25T21:08:40;1019.2;;;10.9;71.9
74435;BME280;62867;52.038;29.256;2022-09-25T21:14:19;1019.1;;;10.8;71.8
74435;BME280;62867;52.038;29.256;2022-09-25T21:19:06;1019.1;;;10.7;71.7
74435;BME280;62867;52.038;29.256;2022-09-25T21:24:02;1019.1;;;10.7;71.6
74435;BME280;62867;52.038;29.256;2022-09-25T21:29:02;1019;;;10.6;71.6
74435;BME280;62867;52.038;29.256;2022-09-25T21:33:44;1019;;;10.5;71.7
74435;BME280;62867;52.038;29.256;2022-09-25T21:38:57;1018.9;;;10.5;71.8
74435;BME280;62867;52.038;29.256;2022-09-25T21:44:17;1019;;;10.4;71.8
74435;BME280;62867;52.038;29.256;2022-09-25T21:48:32;1019;;;10.3;72
74435;BME280;62867;52.038;29.256;2022-09-25T21:53:58;1019;;;10.3;72.5
74435;BME280;62867;52.038;29.256;2022-09-25T21:58:40;1019;;;10.4;72.7
74435;BME280;62867;52.038;29.256;2022-09-25T22:04:20;1018.9;;;10.4;72.8
74435;BME280;62867;52.038;29.256;2022-09-25T22:09:01;1018.9;;;10.4;72.9
74435;BME280;62867;52.038;29.256;2022-09-25T22:13:54;1018.8;;;10.5;72.6
74435;BME280;62867;52.038;29.256;2022-09-25T22:18:56;1018.9;;;10.4;72.5
74435;BME280;62867;52.038;29.256;2022-09-25T22:24:18;1018.9;;;10.4;72.5
74435;BME280;62867;52.038;29.256;2022-09-25T22:29:16;1018.9;;;10.5;72.6
74435;BME280;62867;52.038;29.256;2022-09-25T22:34:15;1018.8;;;10.4;72.5
74435;BME280;62867;52.038;29.256;2022-09-25T22:38:34;1018.8;;;10.4;72.4
74435;BME280;62867;52.038;29.256;2022-09-25T22:43:44;1018.9;;;10.4;72.5
74435;BME280;62867;52.038;29.256;2022-09-25T22:48:34;1018.9;;;10.4;72.7
74435;BME280;62867;52.038;29.256;2022-09-25T22:53:38;1018.9;;;10.5;73.1
74435;BME280;62867;52.038;29.256;2022-09-25T22:58:48;1018.8;;;10.6;73.4
74435;BME280;62867;52.038;29.256;2022-09-25T23:04:11;1018.7;;;10.7;73.7
74435;BME280;62867;52.038;29.256;2022-09-25T23:08:54;1018.6;;;10.8;73.8
74435;BME280;62867;52.038;29.256;2022-09-25T23:13:57;1018.6;;;10.9;73.8
74435;BME280;62867;52.038;29.256;2022-09-25T23:19:14;1018.7;;;11;73.5
74435;BME280;62867;52.038;29.256;2022-09-25T23:24:11;1018.6;;;11.1;73.1
74435;BME280;62867;52.038;29.256;2022-09-25T23:28:46;1018.6;;;11.2;73.1
74435;BME280;62867;52.038;29.256;2022-09-25T23:33:34;1018.6;;;11.2;73.2
74435;BME280;62867;52.038;29.256;2022-09-25T23:38:34;1018.5;;;11.2;73.1
74435;BME280;62867;52.038;29.256;2022-09-25T23:44:12;1018.4;;;11.3;72.9
74435;BME280;62867;52.038;29.256;2022-09-25T23:48:46;1018.4;;;11.3;73
74435;BME280;62867;52.038;29.256;2022-09-25T23:54:12;1018.3;;;11.3;72.9
74435;BME280;62867;52.038;29.256;2022-09-25T23:58:58;1018.3;;;11.4;72.9
